Time;durP1;ratioP1;P1;durP2;ratioP2;P2;SDS_P1;SDS_P2;PMS_P1;PMS_P2;Temp;Humidity;BMP_temperature;BMP_pressure;BME280_temperature;BME280_humidity;BME280_pressure;Samples;Min_cycle;Max_cycle;Signal;HPM_P1;HPM_P2
2024/01/21 00:00:59;;;;;;;;;;;;;;;20.14;38.24;102379.16;2053926;28;6922;-64
2024/01/21 00:02:01;;;;;;;;;;;;;;;20.14;38.29;102369.78;2055513;28;2204;-64
2024/01/21 00:03:04;;;;;;;;;;;;;;;20.14;38.21;102373.41;2060340;28;2323;-64
2024/01/21 00:04:07;;;;;;;;;;;;;;;20.15;38.17;102368.41;2060393;28;2286;-64
2024/01/21 00:05:08;;;;;;;;;;;;;;;20.15;38.31;102374.91;2064893;28;1655;-64
2024/01/21 00:06:10;;;;;;;;;;;;;;;20.14;38.19;102379.16;2063202;28;2253;-64
2024/01/21 00:07:11;;;;;;;;;;;;;;;20.15;38.12;102374.91;2054108;28;2125;-64
2024/01/21 00:08:12;;;;;;;;;;;;;;;20.15;38.20;102372.03;2055701;28;1878;-64
2024/01/21 00:09:14;;;;;;;;;;;;;;;20.15;38.26;102374.16;2062946;28;1928;-64
2024/01/21 00:10:17;;;;;;;;;;;;;;;20.15;38.18;102377.78;2061180;28;1971;-64
2024/01/21 00:11:18;;;;;;;;;;;;;;;20.15;38.19;102374.91;2062769;28;1829;-64
2024/01/21 00:12:19;;;;;;;;;;;;;;;20.16;38.17;102370.69;2063580;28;1831;-63
2024/01/21 00:13:21;;;;;;;;;;;;;;;20.16;38.22;102372.78;2052258;28;2125;-64
2024/01/21 00:14:22;;;;;;;;;;;;;;;20.15;38.33;102374.91;2054341;28;1715;-64
2024/01/21 00:15:24;;;;;;;;;;;;;;;20.16;38.33;102364.16;2058608;28;1869;-64
2024/01/21 00:16:25;;;;;;;;;;;;;;;20.16;38.20;102370.69;2061570;28;1925;-65
2024/01/21 00:17:26;;;;;;;;;;;;;;;20.15;38.20;102363.41;2059738;28;2225;-64
2024/01/21 00:18:28;;;;;;;;;;;;;;;20.15;38.22;102362.66;2059022;28;1801;-64
2024/01/21 00:19:29;;;;;;;;;;;;;;;20.15;38.29;102362.66;2057496;28;1693;-64
2024/01/21 00:20:32;;;;;;;;;;;;;;;20.13;38.24;102359.63;2060439;28;1770;-64
2024/01/21 00:21:34;;;;;;;;;;;;;;;20.13;38.37;102356.75;2053248;28;2219;-64
2024/01/21 00:22:35;;;;;;;;;;;;;;;20.12;38.40;102364.63;2054821;28;1689;-64
2024/01/21 00:23:36;;;;;;;;;;;;;;;20.11;38.41;102362.34;2059279;28;2278;-64
2024/01/21 00:24:38;;;;;;;;;;;;;;;20.11;38.41;102362.34;2058489;28;1685;-64
2024/01/21 00:25:39;;;;;;;;;;;;;;;20.09;38.55;102360.88;2061655;28;1692;-64
2024/01/21 00:26:41;;;;;;;;;;;;;;;20.11;38.32;102362.34;2062654;28;2306;-64
2024/01/21 00:27:44;;;;;;;;;;;;;;;20.08;38.36;102359.34;2062481;28;1761;-64
2024/01/21 00:28:45;;;;;;;;;;;;;;;20.09;38.23;102358.00;2055681;28;1866;-64
2024/01/21 00:29:47;;;;;;;;;;;;;;;20.09;38.32;102360.13;2055299;28;1668;-64
2024/01/21 00:30:48;;;;;;;;;;;;;;;20.09;38.39;102360.13;2062061;28;6153;-64
2024/01/21 00:31:50;;;;;;;;;;;;;;;20.09;38.30;102360.88;2060851;28;1532;-64
2024/01/21 00:32:51;;;;;;;;;;;;;;;20.09;38.39;102360.13;2061036;28;1647;-64
2024/01/21 00:33:53;;;;;;;;;;;;;;;20.09;38.28;102355.09;2055725;28;2231;-64
2024/01/21 00:34:55;;;;;;;;;;;;;;;20.11;38.31;102359.47;2059932;28;1849;-64
2024/01/21 00:35:56;;;;;;;;;;;;;;;20.11;38.20;102359.47;2058880;28;1659;-64
2024/01/21 00:36:57;;;;;;;;;;;;;;;20.11;38.28;102359.47;2062244;28;1660;-64
2024/01/21 00:37:59;;;;;;;;;;;;;;;20.12;38.31;102364.63;2062161;28;1762;-64
2024/01/21 00:39:00;;;;;;;;;;;;;;;20.11;38.18;102356.59;2058366;28;1722;-64
2024/01/21 00:40:02;;;;;;;;;;;;;;;20.09;38.19;102352.22;2061879;28;1634;-64
2024/01/21 00:41:03;;;;;;;;;;;;;;;20.12;38.17;102346.63;2058550;28;1893;-64
2024/01/21 00:42:04;;;;;;;;;;;;;;;20.11;38.25;102345.84;2056897;28;1999;-64
2024/01/21 00:43:09;;;;;;;;;;;;;;;20.12;38.27;102352.38;2055055;28;1689;-64
2024/01/21 00:44:10;;;;;;;;;;;;;;;20.12;38.37;102346.63;2060572;28;2272;-64
2024/01/21 00:45:12;;;;;;;;;;;;;;;20.11;38.32;102342.97;2059401;28;1687;-64
2024/01/21 00:46:13;;;;;;;;;;;;;;;20.12;38.19;102343.75;2059714;28;1655;-64
2024/01/21 00:47:15;;;;;;;;;;;;;;;20.12;38.33;102346.63;2059569;28;1754;-64
2024/01/21 00:48:16;;;;;;;;;;;;;;;20.12;38.24;102343.75;2059746;28;2222;-64
2024/01/21 00:49:18;;;;;;;;;;;;;;;20.11;38.17;102345.09;2060895;28;1857;-64
2024/01/21 00:50:20;;;;;;;;;;;;;;;20.11;38.18;102345.84;2059584;28;1865;-64
2024/01/21 00:51:22;;;;;;;;;;;;;;;20.11;38.39;102339.34;2060198;28;1910;-64
2024/01/21 00:52:23;;;;;;;;;;;;;;;20.09;38.35;102343.59;2059023;28;1504;-64
2024/01/21 00:53:24;;;;;;;;;;;;;;;20.09;38.10;102343.59;2059795;28;2147;-64
2024/01/21 00:54:26;;;;;;;;;;;;;;;20.08;38.21;102344.97;2055451;28;1869;-64
2024/01/21 00:55:28;;;;;;;;;;;;;;;20.08;38.30;102342.09;2062896;28;1642;-64
2024/01/21 00:56:29;;;;;;;;;;;;;;;20.07;38.32;102340.59;2059214;28;1873;-64
2024/01/21 00:57:30;;;;;;;;;;;;;;;20.06;38.22;102336.19;2059128;28;2199;-64
2024/01/21 00:58:32;;;;;;;;;;;;;;;20.07;38.39;102343.47;2059725;28;1933;-64
2024/01/21 00:59:33;;;;;;;;;;;;;;;20.06;38.37;102344.06;2061615;28;2109;-64
2024/01/21 01:00:35;;;;;;;;;;;;;;;20.06;38.45;102344.06;2058840;28;6127;-64
2024/01/21 01:01:38;;;;;;;;;;;;;;;20.04;38.38;102341.81;2061859;28;1896;-64
2024/01/21 01:02:40;;;;;;;;;;;;;;;20.05;38.32;102333.94;2063253;28;1686;-64
2024/01/21 01:03:41;;;;;;;;;;;;;;;20.05;38.32;102337.56;2056856;28;2301;-64
2024/01/21 01:04:43;;;;;;;;;;;;;;;20.05;38.24;102340.44;2058558;28;2241;-64
2024/01/21 01:05:44;;;;;;;;;;;;;;;20.06;38.30;102332.56;2063424;28;1622;-64
2024/01/21 01:06:45;;;;;;;;;;;;;;;20.05;38.24;102336.81;2058422;28;2270;-64
2024/01/21 01:07:47;;;;;;;;;;;;;;;20.06;38.12;102339.06;2058143;28;2335;-64
2024/01/21 01:08:48;;;;;;;;;;;;;;;20.07;38.19;102340.59;2060402;28;1924;-64
2024/01/21 01:09:50;;;;;;;;;;;;;;;20.06;38.17;102333.31;2059016;28;2321;-64
2024/01/21 01:10:51;;;;;;;;;;;;;;;20.06;38.11;102321.81;2060721;28;1919;-64
2024/01/21 01:11:53;;;;;;;;;;;;;;;20.06;38.18;102321.81;2054107;28;1650;-64
2024/01/21 01:12:55;;;;;;;;;;;;;;;20.07;38.28;102329.06;2054954;28;1877;-65
2024/01/21 01:13:57;;;;;;;;;;;;;;;20.08;38.27;102324.81;2058706;28;2102;-64
2024/01/21 01:14:58;;;;;;;;;;;;;;;20.09;38.08;102325.59;2059311;28;1619;-64
2024/01/21 01:16:00;;;;;;;;;;;;;;;20.09;38.05;102332.09;2062594;28;1575;-64
2024/01/21 01:17:01;;;;;;;;;;;;;;;20.09;38.05;102332.09;2063608;28;1563;-64
2024/01/21 01:18:02;;;;;;;;;;;;;;;20.09;38.05;102322.72;2059835;28;2183;-64
2024/01/21 01:19:05;;;;;;;;;;;;;;;20.08;38.24;102319.06;2061252;28;1923;-64
2024/01/21 01:20:07;;;;;;;;;;;;;;;20.09;38.15;102322.72;2057110;28;2242;-64
2024/01/21 01:21:10;;;;;;;;;;;;;;;20.08;38.10;102329.81;2061631;28;1744;-64
2024/01/21 01:22:12;;;;;;;;;;;;;;;20.07;38.33;102334.09;2061468;28;1842;-64
2024/01/21 01:23:14;;;;;;;;;;;;;;;20.07;38.13;102328.34;2057704;28;1978;-64
2024/01/21 01:24:15;;;;;;;;;;;;;;;20.06;38.30;102329.69;2056203;28;2288;-64
2024/01/21 01:25:17;;;;;;;;;;;;;;;20.07;38.23;102331.22;2062705;28;2205;-64
2024/01/21 01:26:18;;;;;;;;;;;;;;;20.06;38.30;102327.56;2057797;28;2338;-64
2024/01/21 01:27:20;;;;;;;;;;;;;;;20.05;38.16;102322.44;2049581;28;2514;-64
2024/01/21 01:28:21;;;;;;;;;;;;;;;20.04;38.21;102315.94;2050280;28;1759;-64
2024/01/21 01:29:23;;;;;;;;;;;;;;;20.03;38.25;102325.91;2060957;28;1564;-64
2024/01/21 01:30:24;;;;;;;;;;;;;;;20.02;38.28;102320.75;2059230;28;6241;-64
2024/01/21 01:31:26;;;;;;;;;;;;;;;20.02;38.27;102315.78;2061438;28;2497;-64
2024/01/21 01:32:27;;;;;;;;;;;;;;;20.01;38.28;102320.00;2058081;28;2219;-64
2024/01/21 01:33:28;;;;;;;;;;;;;;;20.03;38.32;102322.28;2060410;28;2159;-64
2024/01/21 01:34:30;;;;;;;;;;;;;;;20.01;38.20;102317.13;2059132;28;2281;-64
2024/01/21 01:35:32;;;;;;;;;;;;;;;20.00;38.20;102321.38;2061589;28;1638;-64
2024/01/21 01:36:33;;;;;;;;;;;;;;;20.01;38.16;102320.00;2060552;28;1923;-64
2024/01/21 01:37:35;;;;;;;;;;;;;;;19.99;38.36;102313.38;2051643;28;2004;-64
2024/01/21 01:38:36;;;;;;;;;;;;;;;20.01;38.24;102317.13;2052371;28;2161;-64
2024/01/21 01:39:40;;;;;;;;;;;;;;;20.02;38.23;102315.00;2057460;28;1917;-64
2024/01/21 01:40:42;;;;;;;;;;;;;;;20.02;38.22;102324.41;2052483;28;2342;-64
2024/01/21 01:41:43;;;;;;;;;;;;;;;20.02;38.19;102318.66;2054738;28;1628;-64
2024/01/21 01:42:45;;;;;;;;;;;;;;;20.03;38.18;102311.53;2060348;28;1779;-64
2024/01/21 01:43:46;;;;;;;;;;;;;;;20.02;38.11;102315.00;2063272;28;1916;-64
2024/01/21 01:44:47;;;;;;;;;;;;;;;20.02;38.13;102310.03;2061511;28;2146;-64
2024/01/21 01:45:49;;;;;;;;;;;;;;;20.04;38.16;102318.81;2061202;28;2195;-64
2024/01/21 01:46:50;;;;;;;;;;;;;;;20.05;38.17;102311.69;2060649;28;1584;-64
2024/01/21 01:47:52;;;;;;;;;;;;;;;20.04;38.10;102310.19;2058539;28;2247;-64
2024/01/21 01:48:54;;;;;;;;;;;;;;;20.04;38.08;102307.31;2058962;28;2235;-64
2024/01/21 01:49:55;;;;;;;;;;;;;;;20.04;38.10;102306.53;2060531;28;2030;-64
2024/01/21 01:50:57;;;;;;;;;;;;;;;20.04;38.15;102301.56;2060152;28;2335;-64
2024/01/21 01:51:59;;;;;;;;;;;;;;;20.04;38.24;102307.31;2060801;28;1918;-64
2024/01/21 01:53:00;;;;;;;;;;;;;;;20.05;38.08;102308.81;2063232;28;2421;-64
2024/01/21 01:54:02;;;;;;;;;;;;;;;20.05;38.12;102303.06;2057141;28;2245;-64
2024/01/21 01:55:03;;;;;;;;;;;;;;;20.06;38.10;102301.69;2058103;28;1721;-64
2024/01/21 01:56:05;;;;;;;;;;;;;;;20.05;37.97;102297.31;2057598;28;1975;-64
2024/01/21 01:57:06;;;;;;;;;;;;;;;20.05;38.08;102296.56;2058026;28;2171;-64
2024/01/21 01:58:08;;;;;;;;;;;;;;;20.04;38.22;102304.44;2062703;28;1734;-64
2024/01/21 01:59:10;;;;;;;;;;;;;;;20.04;38.12;102301.56;2055764;28;1671;-64
2024/01/21 02:00:12;;;;;;;;;;;;;;;20.04;38.21;102304.44;2058488;28;6200;-64
2024/01/21 02:01:14;;;;;;;;;;;;;;;20.04;38.10;102301.56;2058796;28;1935;-64
2024/01/21 02:02:15;;;;;;;;;;;;;;;20.02;38.02;102298.53;2056450;28;1694;-64
2024/01/21 02:03:17;;;;;;;;;;;;;;;20.03;38.12;102290.66;2061497;28;1631;-64
2024/01/21 02:04:18;;;;;;;;;;;;;;;20.01;38.12;102290.50;2053465;28;1664;-64
2024/01/21 02:05:21;;;;;;;;;;;;;;;20.01;38.18;102288.38;2052870;28;1991;-64
2024/01/21 02:06:22;;;;;;;;;;;;;;;20.01;38.16;102287.63;2060605;28;1647;-64
2024/01/21 02:07:24;;;;;;;;;;;;;;;20.00;38.20;102292.63;2060104;28;2275;-64
2024/01/21 02:08:25;;;;;;;;;;;;;;;20.00;38.18;102284.00;2060200;28;1698;-64
2024/01/21 02:09:26;;;;;;;;;;;;;;;20.00;38.01;102286.13;2063611;28;2198;-64
2024/01/21 02:10:29;;;;;;;;;;;;;;;19.99;38.03;102291.13;2062887;28;2240;-64
2024/01/21 02:11:31;;;;;;;;;;;;;;;20.00;38.16;102289.75;2055128;28;2246;-64
2024/01/21 02:12:32;;;;;;;;;;;;;;;20.00;38.10;102284.00;2062455;28;1904;-64
2024/01/21 02:13:34;;;;;;;;;;;;;;;20.00;38.15;102283.25;2061467;28;2097;-64
2024/01/21 02:14:35;;;;;;;;;;;;;;;20.00;38.05;102286.13;2060122;28;1971;-65
2024/01/21 02:15:36;;;;;;;;;;;;;;;19.99;38.09;102294.00;2059141;28;1574;-65
2024/01/21 02:16:38;;;;;;;;;;;;;;;19.99;38.10;102282.47;2057697;28;2285;-64
2024/01/21 02:17:39;;;;;;;;;;;;;;;20.00;37.92;102284.00;2052658;28;2252;-64
2024/01/21 02:18:42;;;;;;;;;;;;;;;20.00;38.17;102278.25;2050554;28;2330;-65
2024/01/21 02:19:44;;;;;;;;;;;;;;;20.02;38.05;102287.03;2053847;28;1636;-65
2024/01/21 02:20:45;;;;;;;;;;;;;;;20.00;37.96;102284.00;2055626;28;2046;-64
2024/01/21 02:21:47;;;;;;;;;;;;;;;20.02;38.02;102281.28;2062381;28;1647;-65
2024/01/21 02:22:48;;;;;;;;;;;;;;;20.02;37.99;102275.53;2058670;28;1698;-65
2024/01/21 02:23:49;;;;;;;;;;;;;;;20.02;38.00;102281.28;2060727;28;1627;-64
2024/01/21 02:24:51;;;;;;;;;;;;;;;20.05;38.02;102279.31;2056463;28;2245;-65
2024/01/21 02:25:52;;;;;;;;;;;;;;;20.03;38.02;102279.16;2057973;28;1980;-65
2024/01/21 02:26:54;;;;;;;;;;;;;;;20.02;38.00;102281.28;2058300;28;1691;-65
2024/01/21 02:27:55;;;;;;;;;;;;;;;20.03;38.05;102277.03;2055023;28;2239;-65
2024/01/21 02:28:57;;;;;;;;;;;;;;;20.04;37.95;102289.28;2055034;28;1603;-65
2024/01/21 02:29:58;;;;;;;;;;;;;;;20.02;37.94;102275.53;2058719;28;1944;-65
2024/01/21 02:31:00;;;;;;;;;;;;;;;20.04;38.01;102272.03;2059441;28;6073;-65
2024/01/21 02:32:01;;;;;;;;;;;;;;;20.03;37.87;102277.03;2059307;28;2158;-65
2024/01/21 02:33:02;;;;;;;;;;;;;;;20.02;38.00;102264.03;2057790;28;2235;-65
2024/01/21 02:34:04;;;;;;;;;;;;;;;20.03;38.04;102271.28;2058443;28;2219;-65
2024/01/21 02:35:06;;;;;;;;;;;;;;;20.03;38.12;102276.28;2056402;28;2242;-65
2024/01/21 02:36:07;;;;;;;;;;;;;;;20.01;38.09;102274.00;2058894;28;2497;-64
2024/01/21 02:37:09;;;;;;;;;;;;;;;20.01;38.23;102268.25;2059933;28;2254;-65
2024/01/21 02:38:10;;;;;;;;;;;;;;;19.99;38.08;102262.34;2062009;28;1667;-64
2024/01/21 02:39:11;;;;;;;;;;;;;;;20.00;38.17;102272.50;2059213;28;1724;-64
2024/01/21 02:40:13;;;;;;;;;;;;;;;20.00;38.19;102271.75;2059558;28;1799;-64
2024/01/21 02:41:14;;;;;;;;;;;;;;;19.99;38.19;102262.34;2059309;28;2294;-64
2024/01/21 02:42:16;;;;;;;;;;;;;;;19.98;38.08;102260.84;2061434;28;1715;-64
2024/01/21 02:43:17;;;;;;;;;;;;;;;19.98;38.07;102263.72;2061117;28;1823;-65
2024/01/21 02:44:18;;;;;;;;;;;;;;;19.97;38.15;102265.09;2059570;28;1791;-64
2024/01/21 02:45:20;;;;;;;;;;;;;;;19.97;38.17;102267.22;2059379;28;1761;-64
2024/01/21 02:46:22;;;;;;;;;;;;;;;19.96;38.18;102254.97;2061701;28;1839;-64
2024/01/21 02:47:33;;;;;;;;;;;;;;;19.98;38.11;102263.00;2108542;27;2199;-65
2024/01/21 02:48:34;;;;;;;;;;;;;;;19.98;38.04;102263.00;2101879;28;1666;-65
2024/01/21 02:49:36;;;;;;;;;;;;;;;19.98;38.08;102252.22;2101053;28;2090;-64
2024/01/21 02:50:38;;;;;;;;;;;;;;;19.98;38.10;102254.38;2100254;28;2624;-64
2024/01/21 02:51:39;;;;;;;;;;;;;;;19.97;38.09;102250.72;2101174;28;1949;-64
2024/01/21 02:52:40;;;;;;;;;;;;;;;19.98;38.08;102254.38;2101617;28;1682;-64
2024/01/21 02:53:42;;;;;;;;;;;;;;;19.99;38.15;102253.72;2102288;28;1741;-64
2024/01/21 02:54:43;;;;;;;;;;;;;;;19.99;38.07;102252.97;2102678;28;2227;-64
2024/01/21 02:55:45;;;;;;;;;;;;;;;19.99;38.08;102256.59;2102721;28;1746;-65
2024/01/21 02:56:46;;;;;;;;;;;;;;;19.99;37.96;102250.09;2101213;28;1686;-65
2024/01/21 02:57:48;;;;;;;;;;;;;;;19.99;38.14;102256.59;2099147;28;2229;-65
2024/01/21 02:58:50;;;;;;;;;;;;;;;19.99;38.01;102245.09;2100702;28;1829;-65
2024/01/21 02:59:51;;;;;;;;;;;;;;;20.00;38.03;102249.50;2102337;28;1666;-64
2024/01/21 03:00:52;;;;;;;;;;;;;;;20.01;37.97;102244.50;2101093;28;5965;-64
2024/01/21 03:01:54;;;;;;;;;;;;;;;20.00;37.95;102249.50;2100322;28;1888;-65
2024/01/21 03:02:55;;;;;;;;;;;;;;;20.01;37.88;102247.38;2101027;28;2256;-64
2024/01/21 03:03:57;;;;;;;;;;;;;;;19.99;38.00;102253.72;2102060;28;1704;-65
2024/01/21 03:04:58;;;;;;;;;;;;;;;20.00;37.97;102249.50;2099104;28;2204;-65
2024/01/21 03:06:00;;;;;;;;;;;;;;;20.00;38.00;102255.25;2102592;28;1673;-64
2024/01/21 03:07:01;;;;;;;;;;;;;;;20.00;38.09;102255.25;2100331;28;1906;-64
2024/01/21 03:08:03;;;;;;;;;;;;;;;20.00;37.96;102254.50;2099421;28;2133;-65
2024/01/21 03:09:04;;;;;;;;;;;;;;;19.99;38.07;102253.72;2102050;28;1575;-64
2024/01/21 03:10:06;;;;;;;;;;;;;;;19.99;37.94;102247.22;2099647;28;1677;-64
2024/01/21 03:11:08;;;;;;;;;;;;;;;19.97;38.08;102250.72;2100352;28;2193;-65
2024/01/21 03:12:09;;;;;;;;;;;;;;;19.97;38.13;102244.97;2102283;28;2335;-64
2024/01/21 03:13:11;;;;;;;;;;;;;;;19.98;38.12;102251.50;2099764;28;2220;-64
2024/01/21 03:14:13;;;;;;;;;;;;;;;19.96;38.13;102249.22;2102119;28;1619;-64
2024/01/21 03:15:14;;;;;;;;;;;;;;;19.96;38.02;102249.22;2101798;28;1966;-64
2024/01/21 03:16:16;;;;;;;;;;;;;;;19.96;38.13;102259.97;2102270;28;1778;-64
2024/01/21 03:17:18;;;;;;;;;;;;;;;19.95;38.18;102259.22;2101856;28;2228;-64
2024/01/21 03:18:20;;;;;;;;;;;;;;;19.95;38.11;102264.19;2102286;28;1699;-66
2024/01/21 03:19:22;;;;;;;;;;;;;;;19.93;38.03;102259.06;2101444;28;1682;-65
2024/01/21 03:20:24;;;;;;;;;;;;;;;19.93;38.12;102261.16;2101639;28;2141;-64
2024/01/21 03:21:25;;;;;;;;;;;;;;;19.93;38.05;102256.19;2100711;28;1508;-64
2024/01/21 03:22:27;;;;;;;;;;;;;;;19.92;38.12;102271.19;2099163;28;1853;-65
2024/01/21 03:23:29;;;;;;;;;;;;;;;19.92;38.04;102269.03;2102982;28;1690;-65
2024/01/21 03:24:30;;;;;;;;;;;;;;;19.91;37.98;102264.69;2100990;28;2122;-65
2024/01/21 03:25:32;;;;;;;;;;;;;;;19.90;38.12;102260.28;2102340;28;1896;-64
2024/01/21 03:26:33;;;;;;;;;;;;;;;19.90;38.01;102271.78;2102958;28;1675;-66
2024/01/21 03:27:35;;;;;;;;;;;;;;;19.89;38.12;102258.78;2101102;28;2201;-65
2024/01/21 03:28:36;;;;;;;;;;;;;;;19.89;38.11;102273.16;2102605;28;2076;-65
2024/01/21 03:29:37;;;;;;;;;;;;;;;19.88;38.05;102275.28;2102529;28;1796;-65
2024/01/21 03:30:39;;;;;;;;;;;;;;;19.87;38.18;102252.88;2101788;28;7060;-65
2024/01/21 03:31:40;;;;;;;;;;;;;;;19.86;37.98;102271.50;2101377;28;1873;-65
2024/01/21 03:32:42;;;;;;;;;;;;;;;19.87;38.05;102264.38;2100420;28;1849;-64
2024/01/21 03:33:43;;;;;;;;;;;;;;;19.86;37.90;102265.75;2101181;28;1873;-65
2024/01/21 03:34:45;;;;;;;;;;;;;;;19.86;38.02;102265.75;2102263;28;1796;-64
2024/01/21 03:35:47;;;;;;;;;;;;;;;19.86;37.93;102263.63;2102360;28;2099;-65
2024/01/21 03:36:48;;;;;;;;;;;;;;;19.86;38.04;102269.38;2117131;27;1817;-65
2024/01/21 03:37:50;;;;;;;;;;;;;;;19.86;37.94;102268.63;2107524;28;2161;-64
2024/01/21 03:38:51;;;;;;;;;;;;;;;19.87;38.01;102270.13;2090977;28;1610;-65
2024/01/21 03:39:53;;;;;;;;;;;;;;;19.87;38.02;102268.00;2087526;28;2087;-65
2024/01/21 03:40:54;;;;;;;;;;;;;;;19.89;38.02;102273.16;2087876;28;1641;-65
2024/01/21 03:41:56;;;;;;;;;;;;;;;19.89;38.02;102273.16;2092390;28;1538;-64
2024/01/21 03:42:57;;;;;;;;;;;;;;;19.87;37.91;102264.38;2093475;28;1637;-65
2024/01/21 03:43:59;;;;;;;;;;;;;;;19.88;37.76;102260.13;2088977;28;2171;-65
2024/01/21 03:45:00;;;;;;;;;;;;;;;19.90;37.92;102257.41;2091393;28;1748;-65
2024/01/21 03:46:01;;;;;;;;;;;;;;;19.92;37.90;102262.56;2092685;28;1593;-65
2024/01/21 03:47:03;;;;;;;;;;;;;;;19.92;37.99;102260.44;2090471;28;2070;-65
2024/01/21 03:48:04;;;;;;;;;;;;;;;19.92;37.89;102257.53;2088682;28;2297;-65
2024/01/21 03:49:06;;;;;;;;;;;;;;;19.94;37.88;102268.44;2089523;28;1935;-65
2024/01/21 03:50:08;;;;;;;;;;;;;;;19.94;37.84;102256.94;2089437;28;1613;-65
2024/01/21 03:51:10;;;;;;;;;;;;;;;19.94;37.95;102263.44;2090958;28;2219;-65
2024/01/21 03:52:12;;;;;;;;;;;;;;;19.95;37.96;102253.47;2089775;28;1614;-65
2024/01/21 03:53:13;;;;;;;;;;;;;;;19.95;38.00;102253.47;2092767;28;1704;-64
2024/01/21 03:54:14;;;;;;;;;;;;;;;19.95;37.85;102253.47;2092432;28;2152;-65
2024/01/21 03:55:16;;;;;;;;;;;;;;;19.97;37.74;102249.97;2093034;28;2102;-63
2024/01/21 03:56:20;;;;;;;;;;;;;;;19.97;37.82;102256.47;2090015;28;2081;-65
2024/01/21 03:57:22;;;;;;;;;;;;;;;19.98;37.80;102252.22;2106170;28;2572;-66
2024/01/21 03:58:23;;;;;;;;;;;;;;;19.98;37.88;102252.22;2101841;28;2090;-71
2024/01/21 03:59:25;;;;;;;;;;;;;;;19.98;37.81;102252.22;2084392;28;1665;-65
2024/01/21 04:00:26;;;;;;;;;;;;;;;19.98;37.72;102258.00;2083268;28;7382;-64
2024/01/21 04:01:27;;;;;;;;;;;;;;;19.99;37.79;102256.59;2085118;28;1662;-64
2024/01/21 04:02:30;;;;;;;;;;;;;;;19.99;37.72;102253.72;2084329;28;1616;-64
2024/01/21 04:03:32;;;;;;;;;;;;;;;19.99;37.85;102258.72;2081359;28;1951;-64
2024/01/21 04:04:34;;;;;;;;;;;;;;;20.00;37.83;102258.13;2085295;28;1599;-64
2024/01/21 04:05:35;;;;;;;;;;;;;;;19.99;37.72;102247.97;2081909;28;1902;-64
2024/01/21 04:06:40;;;;;;;;;;;;;;;20.00;37.74;102248.75;2094393;28;1663;-64
2024/01/21 04:07:41;;;;;;;;;;;;;;;20.00;37.79;102240.88;2089872;28;1918;-64
2024/01/21 04:08:43;;;;;;;;;;;;;;;20.01;37.59;102245.25;2084081;28;2168;-64
2024/01/21 04:09:44;;;;;;;;;;;;;;;20.01;37.89;102248.13;2086282;28;1911;-65
2024/01/21 04:10:47;;;;;;;;;;;;;;;20.01;37.81;102233.75;2085312;28;1649;-64
2024/01/21 04:11:51;;;;;;;;;;;;;;;20.01;37.78;102228.00;2082708;28;2162;-64
2024/01/21 04:12:53;;;;;;;;;;;;;;;20.01;37.67;102228.00;2085195;28;2085;-64
2024/01/21 04:13:54;;;;;;;;;;;;;;;20.02;37.85;102228.75;2084627;28;1950;-64
2024/01/21 04:14:56;;;;;;;;;;;;;;;20.01;37.71;102228.00;2086275;28;1928;-64
2024/01/21 04:15:57;;;;;;;;;;;;;;;20.03;37.76;102225.25;2084493;28;2029;-64
2024/01/21 04:16:59;;;;;;;;;;;;;;;20.04;37.79;102226.00;2083813;28;1875;-65
2024/01/21 04:18:00;;;;;;;;;;;;;;;20.04;37.66;102223.91;2085843;28;2053;-64
2024/01/21 04:19:02;;;;;;;;;;;;;;;20.03;37.83;102218.75;2085159;28;2229;-64
2024/01/21 04:20:07;;;;;;;;;;;;;;;20.04;37.69;102229.66;2083077;28;2180;-64
2024/01/21 04:21:09;;;;;;;;;;;;;;;20.05;37.82;102224.66;2084411;28;1600;-64
2024/01/21 04:22:10;;;;;;;;;;;;;;;20.05;37.75;102227.53;2083887;28;1856;-64
2024/01/21 04:23:11;;;;;;;;;;;;;;;20.06;37.74;102226.16;2087540;28;1666;-64
2024/01/21 04:24:13;;;;;;;;;;;;;;;20.06;37.68;102218.28;2086611;28;2117;-64
2024/01/21 04:25:14;;;;;;;;;;;;;;;20.06;37.83;102212.53;2082021;28;2108;-64
2024/01/21 04:26:16;;;;;;;;;;;;;;;20.06;37.73;102215.41;2085992;28;2253;-64
2024/01/21 04:27:17;;;;;;;;;;;;;;;20.06;37.70;102212.53;2084869;28;1641;-64
2024/01/21 04:28:20;;;;;;;;;;;;;;;20.07;37.65;102208.31;2085976;28;1918;-64
2024/01/21 04:29:22;;;;;;;;;;;;;;;20.06;37.77;102215.41;2086079;28;1785;-64
2024/01/21 04:30:23;;;;;;;;;;;;;;;20.08;37.85;102209.78;2082091;28;6218;-66
2024/01/21 04:31:25;;;;;;;;;;;;;;;20.06;37.89;102218.28;2085944;28;2096;-65
2024/01/21 04:32:26;;;;;;;;;;;;;;;20.08;37.69;102221.28;2081684;28;2101;-64
2024/01/21 04:33:28;;;;;;;;;;;;;;;20.09;37.77;102219.19;2082731;28;1969;-64
2024/01/21 04:34:29;;;;;;;;;;;;;;;20.08;37.89;102220.53;2085189;28;1741;-64
2024/01/21 04:35:31;;;;;;;;;;;;;;;20.07;37.75;102228.44;2086293;28;2141;-64
2024/01/21 04:36:32;;;;;;;;;;;;;;;20.08;37.70;102232.78;2087026;28;1872;-64
2024/01/21 04:37:34;;;;;;;;;;;;;;;20.09;37.79;102240.06;2082859;28;1698;-64
2024/01/21 04:38:35;;;;;;;;;;;;;;;20.09;37.67;102239.31;2102779;28;1722;-64
2024/01/21 04:39:37;;;;;;;;;;;;;;;20.11;37.78;102230.81;2092066;28;2079;-64
2024/01/21 04:40:38;;;;;;;;;;;;;;;20.11;37.87;102238.69;2082774;28;1797;-64
2024/01/21 04:41:40;;;;;;;;;;;;;;;20.11;37.74;102242.31;2081394;28;2430;-64
2024/01/21 04:42:41;;;;;;;;;;;;;;;20.11;37.91;102235.81;2082127;28;1708;-64
2024/01/21 04:43:44;;;;;;;;;;;;;;;20.11;37.70;102230.06;2087692;28;2002;-64
2024/01/21 04:44:45;;;;;;;;;;;;;;;20.11;37.78;102230.81;2084699;28;1840;-64
2024/01/21 04:45:47;;;;;;;;;;;;;;;20.11;37.80;102230.06;2083637;28;2010;-64
2024/01/21 04:46:48;;;;;;;;;;;;;;;20.11;37.77;102227.19;2084221;28;1786;-64
2024/01/21 04:47:49;;;;;;;;;;;;;;;20.10;37.69;102229.31;2085401;28;1911;-64
2024/01/21 04:48:51;;;;;;;;;;;;;;;20.11;37.79;102230.06;2084165;28;1864;-65
2024/01/21 04:49:52;;;;;;;;;;;;;;;20.11;37.66;102224.31;2084396;28;1555;-66
2024/01/21 04:50:54;;;;;;;;;;;;;;;20.12;37.67;102231.59;2083744;28;2132;-66
2024/01/21 04:51:55;;;;;;;;;;;;;;;20.12;37.74;102225.84;2085357;28;1782;-65
2024/01/21 04:52:57;;;;;;;;;;;;;;;20.12;37.82;102217.22;2084489;28;2174;-66
2024/01/21 04:53:58;;;;;;;;;;;;;;;20.13;37.62;102215.84;2085104;28;1586;-66
2024/01/21 04:54:59;;;;;;;;;;;;;;;20.11;37.69;102219.31;2084476;28;2061;-66
2024/01/21 04:56:01;;;;;;;;;;;;;;;20.13;37.74;102221.59;2082766;28;2109;-65
2024/01/21 04:57:02;;;;;;;;;;;;;;;20.13;37.67;102215.84;2083824;28;1582;-66
2024/01/21 04:58:04;;;;;;;;;;;;;;;20.12;37.69;102223.72;2083831;28;1629;-66
2024/01/21 04:59:05;;;;;;;;;;;;;;;20.12;37.76;102220.09;2082365;28;2091;-66
2024/01/21 05:00:07;;;;;;;;;;;;;;;20.13;37.78;102218.72;2081119;28;6234;-65
2024/01/21 05:01:09;;;;;;;;;;;;;;;20.13;37.93;102222.31;2082026;28;1733;-66
2024/01/21 05:02:10;;;;;;;;;;;;;;;20.14;37.62;102220.22;2081709;28;1681;-66
2024/01/21 05:03:12;;;;;;;;;;;;;;;20.14;37.63;102223.84;2084114;28;1606;-66
2024/01/21 05:04:13;;;;;;;;;;;;;;;20.15;37.86;102221.72;2082128;28;1986;-66
2024/01/21 05:05:15;;;;;;;;;;;;;;;20.15;37.64;102218.84;2084858;28;1630;-65
2024/01/21 05:06:16;;;;;;;;;;;;;;;20.14;37.72;102223.09;2086686;28;1943;-65
2024/01/21 05:07:18;;;;;;;;;;;;;;;20.14;37.77;102215.22;2085894;28;1581;-66
2024/01/21 05:08:19;;;;;;;;;;;;;;;20.15;37.78;102216.72;2082099;28;1983;-66
2024/01/21 05:09:20;;;;;;;;;;;;;;;20.16;37.79;102226.09;2081903;28;2052;-66
2024/01/21 05:10:22;;;;;;;;;;;;;;;20.17;37.67;102216.13;2083499;28;1642;-66
2024/01/21 05:11:23;;;;;;;;;;;;;;;20.14;37.63;102218.09;2086575;28;1853;-66
2024/01/21 05:12:25;;;;;;;;;;;;;;;20.16;37.74;102220.34;2086074;28;1753;-66
2024/01/21 05:13:27;;;;;;;;;;;;;;;20.17;37.68;102227.63;2086977;28;1840;-66
2024/01/21 05:14:31;;;;;;;;;;;;;;;20.15;37.60;102225.34;2080355;28;2069;-66
2024/01/21 05:15:32;;;;;;;;;;;;;;;20.16;37.60;102221.13;2082767;28;2162;-65
2024/01/21 05:16:37;;;;;;;;;;;;;;;20.16;37.67;102214.59;2097211;28;2048;-64
2024/01/21 05:17:39;;;;;;;;;;;;;;;20.17;37.66;102216.13;2100716;28;1615;-65
2024/01/21 05:18:40;;;;;;;;;;;;;;;20.17;37.60;102210.38;2086918;28;1729;-64
2024/01/21 05:19:42;;;;;;;;;;;;;;;20.16;37.65;102221.13;2083460;28;1757;-64
2024/01/21 05:20:43;;;;;;;;;;;;;;;20.16;37.94;102218.25;2083302;28;1558;-65
2024/01/21 05:21:45;;;;;;;;;;;;;;;20.17;37.79;102221.88;2083694;28;1700;-65